Observation data for Friona on 03/12/2018      Previous  Date  Next       Current Mesonet Observations  Soil Data  Daily Summary Page  Observations in Plain Language
KFAS 120505Z 09002KT 03/M11 A3037 RMK A01 T00281114  RH  034%=      5-min Rain = 0
KFAS 120510Z 09001KT 03/M12 A3036 RMK A01 T00301116  RH  033%=      5-min Rain = 0
KFAS 120515Z 09000KT 03/M12 A3037 RMK A01 T00321116  RH  033%=      5-min Rain = 0
KFAS 120520Z 09000KT 04/M12 A3037 RMK A01 T00351118  RH  032%=      5-min Rain = 0
KFAS 120525Z 09000KT 04/M12 A3037 RMK A01 T00361118  RH  031%=      5-min Rain = 0
KFAS 120530Z 00000KT 04/M12 A3037 RMK A01 T00351121  RH  031%=      5-min Rain = 0
KFAS 120535Z 23001KT 03/M12 A3037 RMK A01 T00291118  RH  033%=      5-min Rain = 0
KFAS 120540Z 24003KT 02/M11 A3037 RMK A01 T00201105  RH  039%=      5-min Rain = 0
KFAS 120545Z 25002KT 02/M12 A3037 RMK A01 T00151121  RH  035%=      5-min Rain = 0
KFAS 120550Z 25001KT 02/M13 A3037 RMK A01 T00231126  RH  032%=      5-min Rain = 0
KFAS 120555Z 25001KT 03/M12 A3037 RMK A01 T00261122  RH  032%=      5-min Rain = 0
KFAS 120600Z 26001KT 02/M12 A3037 RMK A01 T00211116  RH  035%=      5-min Rain = 0
KFAS 120605Z 26001KT 02/M10 A3037 RMK A01 T00181104  RH  040%=      5-min Rain = 0
KFAS 120610Z 26001KT 02/M11 A3037 RMK A01 T00171113  RH  037%=      5-min Rain = 0
KFAS 120615Z 26001KT 02/M12 A3037 RMK A01 T00171121  RH  035%=      5-min Rain = 0
KFAS 120620Z 00000KT 02/M12 A3037 RMK A01 T00171122  RH  034%=      5-min Rain = 0
KFAS 120625Z 00000KT 02/M12 A3037 RMK A01 T00181122  RH  034%=      5-min Rain = 0
KFAS 120630Z 00000KT 02/M12 A3037 RMK A01 T00191123  RH  034%=      5-min Rain = 0
KFAS 120635Z 00000KT 02/M12 A3037 RMK A01 T00191123  RH  034%=      5-min Rain = 0
KFAS 120640Z 00000KT 02/M12 A3037 RMK A01 T00181116  RH  036%=      5-min Rain = 0
KFAS 120645Z 00000KT 02/M11 A3037 RMK A01 T00171111  RH  038%=      5-min Rain = 0
KFAS 120650Z 00000KT 02/M10 A3037 RMK A01 T00171104  RH  040%=      5-min Rain = 0
KFAS 120655Z 25001KT 02/M11 A3037 RMK A01 T00171109  RH  039%=      5-min Rain = 0
KFAS 120700Z 23002KT 02/M12 A3037 RMK A01 T00161118  RH  036%=      5-min Rain = 0
KFAS 120705Z 21002KT 01/M11 A3037 RMK A01 T00111109  RH  040%=      5-min Rain = 0
KFAS 120710Z 20001KT 01/M09 A3037 RMK A01 T00091092  RH  047%=      5-min Rain = 0
KFAS 120715Z 19001KT 01/M09 A3037 RMK A01 T00091093  RH  046%=      5-min Rain = 0
KFAS 120720Z 18001KT 01/M10 A3037 RMK A01 T00051101  RH  045%=      5-min Rain = 0
KFAS 120725Z 17001KT 00/M10 A3037 RMK A01 T00041103  RH  044%=      5-min Rain = 0
KFAS 120730Z 17001KT 01/M10 A3037 RMK A01 T00051101  RH  045%=      5-min Rain = 0
KFAS 120735Z 13000KT 00/M10 A3037 RMK A01 T00041098  RH  046%=      5-min Rain = 0
KFAS 120740Z 13001KT 00/10 A3037 RMK A01 T00000-96  RH  048%=      5-min Rain = 0
KFAS 120745Z 13000KT 00/08 A3037 RMK A01 T00-00-81  RH  054%=      5-min Rain = 0
KFAS 120750Z 14000KT 00/M10 A3037 RMK A01 T00011099  RH  047%=      5-min Rain = 0
KFAS 120755Z 00000KT 00/M11 A3037 RMK A01 T00021110  RH  042%=      5-min Rain = 0
KFAS 120800Z 11000KT 00/12 A3037 RMK A01 T00-00-115  RH  042%=      5-min Rain = 0
KFAS 120805Z 10001KT 00/11 A3037 RMK A01 T00-00-113  RH  042%=      5-min Rain = 0
KFAS 120810Z 10001KT 00/12 A3037 RMK A01 T00000-115  RH  041%=      5-min Rain = 0
KFAS 120815Z 10002KT 00/M12 A3037 RMK A01 T00011117  RH  040%=      5-min Rain = 0
KFAS 120820Z 10001KT 00/M12 A3036 RMK A01 T00021119  RH  040%=      5-min Rain = 0
KFAS 120825Z 11001KT 00/12 A3036 RMK A01 T00000-118  RH  040%=      5-min Rain = 0
KFAS 120830Z 14001KT M00/M10 A3036 RMK A01 T10031104  RH  047%=      5-min Rain = 0
KFAS 120835Z 15001KT M01/M11 A3036 RMK A01 T10071107  RH  047%=      5-min Rain = 0
KFAS 120840Z 15001KT M01/M09 A3036 RMK A01 T10061093  RH  052%=      5-min Rain = 0
KFAS 120845Z 15000KT M00/M07 A3036 RMK A01 T10041073  RH  060%=      5-min Rain = 0
KFAS 120850Z 24001KT M01/M07 A3036 RMK A01 T10051068  RH  062%=      5-min Rain = 0
KFAS 120855Z 26007KT M00/M09 A3036 RMK A01 T10041091  RH  052%=      5-min Rain = 0
KFAS 120900Z 25006KT 00/10 A3036 RMK A01 T00-00-102  RH  046%=      5-min Rain = 0
KFAS 120905Z 26005KT 00/10 A3036 RMK A01 T00-00-103  RH  046%=      5-min Rain = 0
KFAS 120910Z 23004KT 00/M10 A3036 RMK A01 T00011103  RH  045%=      5-min Rain = 0
KFAS 120915Z 24004KT 00/M10 A3035 RMK A01 T00031103  RH  044%=      5-min Rain = 0
KFAS 120920Z 25004KT 00/M11 A3035 RMK A01 T00041107  RH  043%=      5-min Rain = 0
KFAS 120925Z 25004KT 00/M11 A3035 RMK A01 T00011109  RH  043%=      5-min Rain = 0
KFAS 120930Z 24002KT M00/M11 A3035 RMK A01 T10031108  RH  045%=      5-min Rain = 0
KFAS 120935Z 24002KT M00/M11 A3035 RMK A01 T10041107  RH  046%=      5-min Rain = 0
KFAS 120940Z 23003KT M00/M11 A3035 RMK A01 T10041106  RH  046%=      5-min Rain = 0
KFAS 120945Z 20003KT M01/M11 A3035 RMK A01 T10061106  RH  046%=      5-min Rain = 0
KFAS 120950Z 20003KT M00/M11 A3035 RMK A01 T10021105  RH  046%=      5-min Rain = 0
KFAS 120955Z 20002KT M00/M11 A3035 RMK A01 T10021105  RH  046%=      5-min Rain = 0
KFAS 121000Z 20002KT M01/M11 A3035 RMK A01 T10061107  RH  046%=      5-min Rain = 0
KFAS 121005Z 20003KT M01/M11 A3035 RMK A01 T10071105  RH  047%=      5-min Rain = 0
KFAS 121010Z 19002KT M01/M10 A3035 RMK A01 T10071104  RH  048%=      5-min Rain = 0
KFAS 121015Z 25002KT M01/M10 A3035 RMK A01 T10101101  RH  050%=      5-min Rain = 0
KFAS 121020Z 24002KT M01/M10 A3035 RMK A01 T10111101  RH  050%=      5-min Rain = 0
KFAS 121025Z 25002KT M01/M10 A3036 RMK A01 T10101104  RH  049%=      5-min Rain = 0
KFAS 121030Z 26003KT M01/M11 A3036 RMK A01 T10141108  RH  048%=      5-min Rain = 0
KFAS 121035Z 25003KT M02/M11 A3036 RMK A01 T10161108  RH  049%=      5-min Rain = 0
KFAS 121040Z 25003KT M02/M11 A3036 RMK A01 T10171108  RH  050%=      5-min Rain = 0
KFAS 121045Z 25003KT M02/M11 A3036 RMK A01 T10191111  RH  049%=      5-min Rain = 0
KFAS 121050Z 25004KT M02/M11 A3035 RMK A01 T10221109  RH  051%=      5-min Rain = 0
KFAS 121055Z 25004KT M02/M11 A3035 RMK A01 T10201107  RH  051%=      5-min Rain = 0
KFAS 121100Z 24003KT M02/M11 A3035 RMK A01 T10201107  RH  051%=      5-min Rain = 0
KFAS 121105Z 23003KT M02/M11 A3035 RMK A01 T10211110  RH  050%=      5-min Rain = 0
KFAS 121110Z 22003KT M03/M11 A3035 RMK A01 T10271113  RH  051%=      5-min Rain = 0
KFAS 121115Z 22002KT M03/M09 A3035 RMK A01 T10281090  RH  062%=      5-min Rain = 0
KFAS 121120Z 22002KT M03/M08 A3035 RMK A01 T10261080  RH  066%=      5-min Rain = 0
KFAS 121125Z 18002KT M02/M09 A3035 RMK A01 T10231088  RH  061%=      5-min Rain = 0
KFAS 121130Z 17002KT M02/M09 A3035 RMK A01 T10231093  RH  058%=      5-min Rain = 0
KFAS 121135Z 20002KT M02/M09 A3035 RMK A01 T10221089  RH  060%=      5-min Rain = 0
KFAS 121140Z 22001KT M02/M09 A3035 RMK A01 T10201087  RH  060%=      5-min Rain = 0
KFAS 121145Z 22001KT M02/M09 A3035 RMK A01 T10241089  RH  061%=      5-min Rain = 0
KFAS 121150Z 22001KT M02/M09 A3035 RMK A01 T10231088  RH  061%=      5-min Rain = 0
KFAS 121155Z 22000KT M03/M10 A3035 RMK A01 T10251095  RH  059%=      5-min Rain = 0
KFAS 121200Z 14001KT M03/M09 A3035 RMK A01 T10271089  RH  063%=      5-min Rain = 0
KFAS 121205Z 14001KT M03/M08 A3035 RMK A01 T10251084  RH  064%=      5-min Rain = 0
KFAS 121210Z 15002KT M02/M09 A3035 RMK A01 T10221085  RH  062%=      5-min Rain = 0
KFAS 121215Z 16002KT M02/M08 A3035 RMK A01 T10221081  RH  064%=      5-min Rain = 0
KFAS 121220Z 17002KT M02/M09 A3035 RMK A01 T10241092  RH  060%=      5-min Rain = 0
KFAS 121225Z 17003KT M03/M10 A3035 RMK A01 T10261100  RH  057%=      5-min Rain = 0
KFAS 121230Z 18003KT M03/M10 A3036 RMK A01 T10251098  RH  057%=      5-min Rain = 0
KFAS 121235Z 17003KT M02/M10 A3035 RMK A01 T10231098  RH  056%=      5-min Rain = 0
KFAS 121240Z 16003KT M02/M10 A3035 RMK A01 T10211097  RH  056%=      5-min Rain = 0
KFAS 121245Z 15003KT M02/M10 A3035 RMK A01 T10201096  RH  056%=      5-min Rain = 0
KFAS 121250Z 14002KT M02/M10 A3036 RMK A01 T10181095  RH  055%=      5-min Rain = 0
KFAS 121255Z 13001KT M02/M09 A3036 RMK A01 T10161086  RH  058%=      5-min Rain = 0
KFAS 121300Z 13002KT M02/M08 A3036 RMK A01 T10151082  RH  060%=      5-min Rain = 0
KFAS 121305Z 14002KT M01/M09 A3036 RMK A01 T10141093  RH  055%=      5-min Rain = 0
KFAS 121310Z 14002KT M01/M10 A3036 RMK A01 T10121095  RH  053%=      5-min Rain = 0
KFAS 121315Z 15002KT M01/M09 A3036 RMK A01 T10091092  RH  053%=      5-min Rain = 0
KFAS 121320Z 16003KT M01/M09 A3036 RMK A01 T10061091  RH  053%=      5-min Rain = 0
KFAS 121325Z 16003KT M00/M09 A3036 RMK A01 T10041089  RH  052%=      5-min Rain = 0
KFAS 121330Z 15003KT 00/M09 A3036 RMK A01 T00011088  RH  051%=      5-min Rain = 0
KFAS 121335Z 15003KT 00/M09 A3036 RMK A01 T00041090  RH  049%=      5-min Rain = 0
KFAS 121340Z 16003KT 01/M09 A3036 RMK A01 T00051090  RH  049%=      5-min Rain = 0
KFAS 121345Z 16002KT 01/M09 A3036 RMK A01 T00071086  RH  050%=      5-min Rain = 0
KFAS 121350Z 16002KT 01/M09 A3036 RMK A01 T00091087  RH  049%=      5-min Rain = 0
KFAS 121355Z 16003KT 01/M09 A3036 RMK A01 T00101085  RH  049%=      5-min Rain = 0
KFAS 121400Z 16003KT 01/M09 A3036 RMK A01 T00121085  RH  048%=      5-min Rain = 0
KFAS 121405Z 19002KT 02/M08 A3037 RMK A01 T00151080  RH  049%=      5-min Rain = 0
KFAS 121410Z 19003KT 02/M08 A3037 RMK A01 T00211075  RH  049%=      5-min Rain = 0
KFAS 121415Z 17004KT 03/M08 A3037 RMK A01 T00261075  RH  047%=      5-min Rain = 0
KFAS 121420Z 17005KT 03/M07 A3037 RMK A01 T00301074  RH  046%=      5-min Rain = 0
KFAS 121425Z 18005KT 03/M07 A3037 RMK A01 T00341073  RH  046%=      5-min Rain = 0
KFAS 121430Z 18005KT 04/M07 A3037 RMK A01 T00371073  RH  044%=      5-min Rain = 0
KFAS 121435Z 18006KT 04/M07 A3038 RMK A01 T00391071  RH  044%=      5-min Rain = 0
KFAS 121440Z 18007KT 04/M07 A3038 RMK A01 T00421070  RH  044%=      5-min Rain = 0
KFAS 121445Z 18007KT 04/M07 A3038 RMK A01 T00431070  RH  044%=      5-min Rain = 0
KFAS 121450Z 18009KT 04/M07 A3038 RMK A01 T00441071  RH  043%=      5-min Rain = 0
KFAS 121455Z 18009KT 05/M07 A3038 RMK A01 T00461071  RH  042%=      5-min Rain = 0
KFAS 121500Z 18009KT 05/M07 A3038 RMK A01 T00481067  RH  043%=      5-min Rain = 0
KFAS 121505Z 17010KT 05/M06 A3038 RMK A01 T00501064  RH  044%=      5-min Rain = 0
KFAS 121510Z 17010KT 05/M06 A3038 RMK A01 T00511062  RH  044%=      5-min Rain = 0
KFAS 121515Z 17010KT 05/M06 A3038 RMK A01 T00521062  RH  044%=      5-min Rain = 0
KFAS 121520Z 18009KT 05/M06 A3038 RMK A01 T00541061  RH  043%=      5-min Rain = 0
KFAS 121525Z 18009KT 06/M06 A3038 RMK A01 T00561062  RH  042%=      5-min Rain = 0
KFAS 121530Z 17009KT 06/M06 A3038 RMK A01 T00561063  RH  042%=      5-min Rain = 0
KFAS 121535Z 18009KT 06/M06 A3038 RMK A01 T00581061  RH  042%=      5-min Rain = 0
KFAS 121540Z 17010KT 06/M06 A3038 RMK A01 T00601061  RH  042%=      5-min Rain = 0
KFAS 121545Z 18010KT 06/M06 A3038 RMK A01 T00621059  RH  042%=      5-min Rain = 0
KFAS 121550Z 18010KT 07/M06 A3038 RMK A01 T00651059  RH  041%=      5-min Rain = 0
KFAS 121555Z 18011KT 07/M06 A3038 RMK A01 T00671059  RH  040%=      5-min Rain = 0
KFAS 121600Z 18010KT 07/M06 A3038 RMK A01 T00671058  RH  040%=      5-min Rain = 0
KFAS 121605Z 18010KT 07/M06 A3038 RMK A01 T00711057  RH  040%=      5-min Rain = 0
KFAS 121610Z 19010KT 07/M06 A3038 RMK A01 T00721058  RH  039%=      5-min Rain = 0
KFAS 121615Z 20010KT 08/M06 A3038 RMK A01 T00771056  RH  038%=      5-min Rain = 0
KFAS 121620Z 19010KT 08/M06 A3037 RMK A01 T00821058  RH  037%=      5-min Rain = 0
KFAS 121625Z 20010KT 08/M06 A3037 RMK A01 T00801058  RH  037%=      5-min Rain = 0
KFAS 121630Z 18009G14KT 08/M06 A3037 RMK A01 T00811058  RH  037%=      5-min Rain = 0
KFAS 121635Z 19010G15KT 08/M06 A3037 RMK A01 T00831057  RH  037%=      5-min Rain = 0
KFAS 121640Z 19009G15KT 08/M06 A3037 RMK A01 T00841055  RH  037%=      5-min Rain = 0
KFAS 121645Z 18009KT 09/M05 A3036 RMK A01 T00891053  RH  036%=      5-min Rain = 0
KFAS 121650Z 20009KT 09/M05 A3036 RMK A01 T00911050  RH  037%=      5-min Rain = 0
KFAS 121655Z 21008KT 09/M05 A3036 RMK A01 T00911047  RH  038%=      5-min Rain = 0
KFAS 121700Z 21007KT 09/M05 A3036 RMK A01 T00931048  RH  037%=      5-min Rain = 0
KFAS 121705Z 19008KT 09/M05 A3036 RMK A01 T00941048  RH  036%=      5-min Rain = 0
KFAS 121710Z 21007G12KT 10/M05 A3036 RMK A01 T00971047  RH  036%=      5-min Rain = 0
KFAS 121715Z 20004KT 10/M05 A3036 RMK A01 T00961046  RH  037%=      5-min Rain = 0
KFAS 121720Z 20007KT 10/M05 A3035 RMK A01 T00971049  RH  035%=      5-min Rain = 0
KFAS 121725Z 21008G13KT 10/M05 A3035 RMK A01 T01011050  RH  034%=      5-min Rain = 0
KFAS 121730Z 18007KT 10/M05 A3035 RMK A01 T01041051  RH  033%=      5-min Rain = 0
KFAS 121735Z 20007KT 11/M05 A3035 RMK A01 T01081051  RH  032%=      5-min Rain = 0
KFAS 121740Z 19007KT 11/M05 A3035 RMK A01 T01071054  RH  032%=      5-min Rain = 0
KFAS 121745Z 23007G12KT 11/M05 A3035 RMK A01 T01051054  RH  032%=      5-min Rain = 0
KFAS 121750Z 21007G12KT 10/M06 A3035 RMK A01 T01041058  RH  031%=      5-min Rain = 0
KFAS 121755Z 18006KT 11/M05 A3035 RMK A01 T01061052  RH  033%=      5-min Rain = 0
KFAS 121800Z 19008G15KT 11/M05 A3034 RMK A01 T01101049  RH  032%=      5-min Rain = 0
KFAS 121805Z 19007G12KT 11/M06 A3034 RMK A01 T01121058  RH  030%=      5-min Rain = 0
KFAS 121810Z 22006G11KT 11/M06 A3034 RMK A01 T01101057  RH  031%=      5-min Rain = 0
KFAS 121815Z 21008KT 11/M05 A3034 RMK A01 T01121050  RH  032%=      5-min Rain = 0
KFAS 121820Z 21006G12KT 11/M05 A3033 RMK A01 T01121052  RH  031%=      5-min Rain = 0
KFAS 121825Z 20006KT 12/M06 A3033 RMK A01 T01151057  RH  030%=      5-min Rain = 0
KFAS 121830Z 22005G10KT 12/M06 A3033 RMK A01 T01161059  RH  029%=      5-min Rain = 0
KFAS 121835Z 23006KT 12/M06 A3032 RMK A01 T01151062  RH  028%=      5-min Rain = 0
KFAS 121840Z 23006KT 12/M06 A3032 RMK A01 T01191055  RH  029%=      5-min Rain = 0
KFAS 121845Z 23007G12KT 12/M05 A3032 RMK A01 T01221053  RH  029%=      5-min Rain = 0
KFAS 121850Z 21008G14KT 12/M06 A3032 RMK A01 T01231059  RH  028%=      5-min Rain = 0
KFAS 121855Z 20007G14KT 12/M06 A3032 RMK A01 T01231063  RH  027%=      5-min Rain = 0
KFAS 121900Z 18005KT 12/M06 A3031 RMK A01 T01201064  RH  027%=      5-min Rain = 0
KFAS 121905Z 20009KT 12/M07 A3031 RMK A01 T01211067  RH  026%=      5-min Rain = 0
KFAS 121910Z 17005KT 12/M07 A3031 RMK A01 T01211066  RH  026%=      5-min Rain = 0
KFAS 121915Z 19007G14KT 12/M07 A303 RMK A01 T01231066  RH  026%=      5-min Rain = 0
KFAS 121920Z 18010G16KT 13/M07 A303 RMK A01 T01251071  RH  025%=      5-min Rain = 0
KFAS 121925Z 19007G13KT 13/M07 A303 RMK A01 T01251073  RH  024%=      5-min Rain = 0
KFAS 121930Z 21006G13KT 13/M07 A303 RMK A01 T01281073  RH  024%=      5-min Rain = 0
KFAS 121935Z 21007G12KT 13/M07 A3029 RMK A01 T01281071  RH  024%=      5-min Rain = 0
KFAS 121940Z 22006KT 13/M07 A3029 RMK A01 T01281071  RH  024%=      5-min Rain = 0
KFAS 121945Z 22007G14KT 13/M07 A3028 RMK A01 T01281069  RH  025%=      5-min Rain = 0
KFAS 121950Z 21009KT 13/M07 A3028 RMK A01 T01311069  RH  024%=      5-min Rain = 0
KFAS 121955Z 19004G11KT 13/M07 A3028 RMK A01 T01281073  RH  024%=      5-min Rain = 0
KFAS 122000Z 20009G14KT 13/M07 A3028 RMK A01 T01321072  RH  024%=      5-min Rain = 0
KFAS 122005Z 20008G13KT 13/M08 A3027 RMK A01 T01331078  RH  022%=      5-min Rain = 0
KFAS 122010Z 20010G15KT 14/M08 A3027 RMK A01 T01371076  RH  022%=      5-min Rain = 0
KFAS 122015Z 21009G14KT 14/M08 A3027 RMK A01 T01351075  RH  023%=      5-min Rain = 0
KFAS 122020Z 17010KT 14/M08 A3026 RMK A01 T01371077  RH  022%=      5-min Rain = 0
KFAS 122025Z 17009KT 13/M07 A3026 RMK A01 T01331074  RH  023%=      5-min Rain = 0
KFAS 122030Z 19011G16KT 14/M07 A3025 RMK A01 T01391069  RH  023%=      5-min Rain = 0
KFAS 122035Z 19009G14KT 14/M07 A3025 RMK A01 T01401068  RH  023%=      5-min Rain = 0
KFAS 122040Z 19011G17KT 14/M07 A3025 RMK A01 T01391066  RH  024%=      5-min Rain = 0
KFAS 122045Z 21010G17KT 14/M07 A3025 RMK A01 T01411068  RH  023%=      5-min Rain = 0
KFAS 122050Z 19008G15KT 14/M07 A3024 RMK A01 T01401066  RH  023%=      5-min Rain = 0
KFAS 122055Z 19011KT 14/M06 A3024 RMK A01 T01411064  RH  024%=      5-min Rain = 0
KFAS 122100Z 22010KT 14/M07 A3024 RMK A01 T01421066  RH  023%=      5-min Rain = 0
KFAS 122105Z 20011KT 14/M07 A3023 RMK A01 T01411066  RH  023%=      5-min Rain = 0
KFAS 122110Z 15008KT 14/M07 A3023 RMK A01 T01391066  RH  023%=      5-min Rain = 0
KFAS 122115Z 16011G17KT 14/M07 A3023 RMK A01 T01421066  RH  023%=      5-min Rain = 0
KFAS 122120Z 19012KT 15/M07 A3022 RMK A01 T01451071  RH  022%=      5-min Rain = 0
KFAS 122125Z 19010G15KT 15/M07 A3022 RMK A01 T01451070  RH  022%=      5-min Rain = 0
KFAS 122130Z 20010G15KT 15/M08 A3022 RMK A01 T01461079  RH  020%=      5-min Rain = 0
KFAS 122135Z 19010G15KT 14/M08 A3022 RMK A01 T01411080  RH  021%=      5-min Rain = 0
KFAS 122140Z 20006G13KT 14/M08 A3021 RMK A01 T01391078  RH  021%=      5-min Rain = 0
KFAS 122145Z 18012KT 14/M08 A3021 RMK A01 T01421076  RH  021%=      5-min Rain = 0
KFAS 122150Z 19009G14KT 15/M08 A3021 RMK A01 T01451079  RH  020%=      5-min Rain = 0
KFAS 122155Z 20011G16KT 15/M08 A302 RMK A01 T01451077  RH  021%=      5-min Rain = 0
KFAS 122200Z 20009G14KT 15/M08 A302 RMK A01 T01461077  RH  021%=      5-min Rain = 0
KFAS 122205Z 20008G17KT 15/M08 A302 RMK A01 T01481080  RH  020%=      5-min Rain = 0
KFAS 122210Z 18012KT 15/M08 A302 RMK A01 T01471080  RH  020%=      5-min Rain = 0
KFAS 122215Z 18011G18KT 15/M08 A3019 RMK A01 T01461080  RH  020%=      5-min Rain = 0
KFAS 122220Z 19008G13KT 15/M08 A3019 RMK A01 T01451083  RH  020%=      5-min Rain = 0
KFAS 122225Z 17011KT 14/M08 A3019 RMK A01 T01441083  RH  020%=      5-min Rain = 0
KFAS 122230Z 19010KT 15/M08 A3019 RMK A01 T01461084  RH  020%=      5-min Rain = 0
KFAS 122235Z 15009KT 14/M09 A3018 RMK A01 T01431086  RH  019%=      5-min Rain = 0
KFAS 122240Z 17010G16KT 14/M09 A3019 RMK A01 T01411087  RH  020%=      5-min Rain = 0
KFAS 122245Z 16012KT 14/M09 A3019 RMK A01 T01411088  RH  020%=      5-min Rain = 0
KFAS 122250Z 18010G15KT 14/M09 A3018 RMK A01 T01411089  RH  019%=      5-min Rain = 0
KFAS 122255Z 18011G16KT 14/M09 A3018 RMK A01 T01391090  RH  019%=      5-min Rain = 0
KFAS 122300Z 18010KT 14/M09 A3018 RMK A01 T01421090  RH  019%=      5-min Rain = 0
KFAS 122305Z 19009KT 14/M09 A3018 RMK A01 T01381092  RH  019%=      5-min Rain = 0
KFAS 122310Z 19009KT 13/M09 A3018 RMK A01 T01341090  RH  020%=      5-min Rain = 0
KFAS 122315Z 17012KT 14/M09 A3018 RMK A01 T01351089  RH  020%=      5-min Rain = 0
KFAS 122320Z 17012KT 13/M09 A3018 RMK A01 T01341090  RH  020%=      5-min Rain = 0
KFAS 122325Z 17011KT 13/M09 A3018 RMK A01 T01331088  RH  021%=      5-min Rain = 0
KFAS 122330Z 18010KT 14/M09 A3017 RMK A01 T01371086  RH  020%=      5-min Rain = 0
KFAS 122335Z 17011KT 14/M09 A3017 RMK A01 T01381088  RH  020%=      5-min Rain = 0
KFAS 122340Z 18010KT 14/M09 A3018 RMK A01 T01381088  RH  020%=      5-min Rain = 0
KFAS 122345Z 16011KT 14/M09 A3018 RMK A01 T01381088  RH  020%=      5-min Rain = 0
KFAS 122350Z 16010KT 14/M09 A3018 RMK A01 T01391087  RH  020%=      5-min Rain = 0
KFAS 122355Z 15011KT 14/M09 A3018 RMK A01 T01401090  RH  019%=      5-min Rain = 0
KFAS 130000Z 16010KT 14/M09 A3018 RMK A01 T01371089  RH  020%=      5-min Rain = 0
KFAS 130005Z 17011KT 14/M09 A3018 RMK A01 T01361087  RH  020%=      5-min Rain = 0
KFAS 130010Z 17011KT 13/M09 A3018 RMK A01 T01341089  RH  020%=      5-min Rain = 0
KFAS 130015Z 15011KT 13/M09 A3018 RMK A01 T01301091  RH  020%=      5-min Rain = 0
KFAS 130020Z 15012KT 13/M09 A3018 RMK A01 T01311089  RH  021%=      5-min Rain = 0
KFAS 130025Z 16011KT 13/M09 A3018 RMK A01 T01311087  RH  021%=      5-min Rain = 0
KFAS 130030Z 16011KT 13/M09 A3018 RMK A01 T01291086  RH  021%=      5-min Rain = 0
KFAS 130035Z 15012KT 13/M09 A3018 RMK A01 T01281088  RH  021%=      5-min Rain = 0
KFAS 130040Z 15010KT 13/M09 A3018 RMK A01 T01261086  RH  022%=      5-min Rain = 0
KFAS 130045Z 15010KT 12/M09 A3018 RMK A01 T01231086  RH  022%=      5-min Rain = 0
KFAS 130050Z 16011KT 12/M08 A3018 RMK A01 T01201083  RH  023%=      5-min Rain = 0
KFAS 130055Z 16012KT 12/M09 A3019 RMK A01 T01171085  RH  023%=      5-min Rain = 0
KFAS 130100Z 15011KT 12/M09 A3018 RMK A01 T01151085  RH  024%=      5-min Rain = 0
KFAS 130105Z 15011KT 11/M09 A3019 RMK A01 T01121085  RH  024%=      5-min Rain = 0
KFAS 130110Z 15011KT 11/M09 A3019 RMK A01 T01091085  RH  025%=      5-min Rain = 0
KFAS 130115Z 15010KT 10/M08 A3019 RMK A01 T01041083  RH  026%=      5-min Rain = 0
KFAS 130120Z 16010KT 10/M08 A3019 RMK A01 T00991084  RH  027%=      5-min Rain = 0
KFAS 130125Z 15010KT 10/M08 A3019 RMK A01 T00961083  RH  027%=      5-min Rain = 0
KFAS 130130Z 15011KT 09/M09 A3019 RMK A01 T00941085  RH  027%=      5-min Rain = 0
KFAS 130135Z 15011KT 09/M09 A3019 RMK A01 T00941087  RH  027%=      5-min Rain = 0
KFAS 130140Z 15011KT 09/M09 A3019 RMK A01 T00921090  RH  027%=      5-min Rain = 0
KFAS 130145Z 15011KT 09/M09 A3019 RMK A01 T00881092  RH  027%=      5-min Rain = 0
KFAS 130150Z 15012KT 09/M09 A3019 RMK A01 T00871092  RH  027%=      5-min Rain = 0
KFAS 130155Z 15013KT 09/M09 A3019 RMK A01 T00861092  RH  027%=      5-min Rain = 0
KFAS 130200Z 15012KT 09/M09 A3019 RMK A01 T00851092  RH  028%=      5-min Rain = 0
KFAS 130205Z 15012KT 08/M09 A3019 RMK A01 T00831092  RH  028%=      5-min Rain = 0
KFAS 130210Z 15012KT 08/M09 A302 RMK A01 T00821092  RH  028%=      5-min Rain = 0
KFAS 130215Z 15012KT 08/M09 A302 RMK A01 T00811092  RH  028%=      5-min Rain = 0
KFAS 130220Z 15012KT 08/M09 A302 RMK A01 T00791091  RH  029%=      5-min Rain = 0
KFAS 130225Z 15012KT 08/M09 A302 RMK A01 T00781091  RH  029%=      5-min Rain = 0
KFAS 130230Z 15012KT 08/M09 A302 RMK A01 T00761091  RH  029%=      5-min Rain = 0
KFAS 130235Z 15012KT 08/M09 A302 RMK A01 T00761091  RH  030%=      5-min Rain = 0
KFAS 130240Z 15012KT 08/M09 A302 RMK A01 T00751090  RH  030%=      5-min Rain = 0
KFAS 130245Z 15012KT 07/M09 A302 RMK A01 T00741090  RH  030%=      5-min Rain = 0
KFAS 130250Z 15012KT 07/M09 A302 RMK A01 T00721090  RH  031%=      5-min Rain = 0
KFAS 130255Z 15012KT 07/M09 A302 RMK A01 T00691091  RH  031%=      5-min Rain = 0
KFAS 130300Z 15012KT 07/M09 A302 RMK A01 T00671090  RH  031%=      5-min Rain = 0
KFAS 130305Z 15012KT 07/M09 A302 RMK A01 T00651090  RH  032%=      5-min Rain = 0
KFAS 130310Z 15012KT 06/M09 A302 RMK A01 T00631090  RH  032%=      5-min Rain = 0
KFAS 130315Z 15013KT 06/M09 A302 RMK A01 T00621091  RH  032%=      5-min Rain = 0
KFAS 130320Z 15012KT 06/M09 A302 RMK A01 T00611091  RH  033%=      5-min Rain = 0
KFAS 130325Z 16012KT 06/M09 A302 RMK A01 T00581090  RH  033%=      5-min Rain = 0
KFAS 130330Z 16011KT 06/M09 A302 RMK A01 T00571088  RH  034%=      5-min Rain = 0
KFAS 130335Z 16012KT 06/M09 A302 RMK A01 T00551088  RH  035%=      5-min Rain = 0
KFAS 130340Z 16012KT 05/M09 A302 RMK A01 T00541087  RH  036%=      5-min Rain = 0
KFAS 130345Z 16012KT 05/M09 A3021 RMK A01 T00541087  RH  035%=      5-min Rain = 0
KFAS 130350Z 16011KT 05/M09 A3021 RMK A01 T00541086  RH  036%=      5-min Rain = 0
KFAS 130355Z 16011KT 05/M09 A3021 RMK A01 T00521088  RH  036%=      5-min Rain = 0
KFAS 130400Z 16011KT 05/M09 A3021 RMK A01 T00511087  RH  036%=      5-min Rain = 0
KFAS 130405Z 16011KT 05/M09 A3021 RMK A01 T00491086  RH  037%=      5-min Rain = 0
KFAS 130410Z 16011KT 05/M09 A3021 RMK A01 T00461085  RH  038%=      5-min Rain = 0
KFAS 130415Z 16010KT 05/M09 A3021 RMK A01 T00451088  RH  037%=      5-min Rain = 0
KFAS 130420Z 16009KT 04/M09 A3021 RMK A01 T00421088  RH  038%=      5-min Rain = 0
KFAS 130425Z 16008KT 04/M09 A3021 RMK A01 T00391087  RH  039%=      5-min Rain = 0
KFAS 130430Z 16008KT 04/M09 A3021 RMK A01 T00351085  RH  041%=      5-min Rain = 0
KFAS 130435Z 16007KT 03/M09 A3021 RMK A01 T00311086  RH  042%=      5-min Rain = 0
KFAS 130440Z 16007KT 03/M09 A3021 RMK A01 T00271087  RH  043%=      5-min Rain = 0
KFAS 130445Z 16006KT 02/M09 A3021 RMK A01 T00241087  RH  044%=      5-min Rain = 0
KFAS 130450Z 16007KT 02/M09 A3021 RMK A01 T00221089  RH  044%=      5-min Rain = 0
KFAS 130455Z 16007KT 02/M09 A3021 RMK A01 T00211086  RH  045%=      5-min Rain = 0
KFAS 130500Z 17008KT 02/M09 A3021 RMK A01 T00211085  RH  045%=      5-min Rain = 0

Page generated in 0.0174 seconds.